Time;durP1;ratioP1;P1;durP2;ratioP2;P2;SDS_P1;SDS_P2;PMS_P1;PMS_P2;Temp;Humidity;BMP_temperature;BMP_pressure;BME280_temperature;BME280_humidity;BME280_pressure;Samples;Min_cycle;Max_cycle;Signal;HPM_P1;HPM_P2
2022/06/06 00:01:09;;;;;;;3.60;3.40;;;26.20;44.40;;;;;;5078101;28;20470;-83
2022/06/06 00:03:38;;;;;;;3.20;3.10;;;26.20;44.40;;;;;;5077514;28;20465;-85
2022/06/06 00:06:09;;;;;;;3.70;3.50;;;26.20;44.40;;;;;;5077601;28;20438;-85
2022/06/06 00:08:37;;;;;;;3.73;3.43;;;26.20;44.50;;;;;;5078179;28;20440;-82
2022/06/06 00:11:09;;;;;;;3.40;3.30;;;26.20;44.50;;;;;;5076810;28;20489;-83
2022/06/06 00:13:37;;;;;;;3.20;3.10;;;26.20;44.50;;;;;;5077455;28;20509;-84
2022/06/06 00:16:06;;;;;;;3.40;3.30;;;26.20;44.60;;;;;;5077375;28;20896;-83
2022/06/06 00:18:35;;;;;;;3.50;3.40;;;26.20;44.60;;;;;;5077647;28;20438;-83
2022/06/06 00:21:03;;;;;;;3.30;3.20;;;26.20;44.70;;;;;;5078084;28;20515;-83
2022/06/06 00:23:31;;;;;;;3.53;3.43;;;26.10;44.70;;;;;;5078020;28;20491;-85
2022/06/06 00:25:59;;;;;;;3.37;3.27;;;26.20;44.80;;;;;;5077548;28;20528;-83
2022/06/06 00:28:28;;;;;;;3.40;3.30;;;26.20;44.80;;;;;;5077881;28;20536;-83
2022/06/06 00:30:57;;;;;;;3.20;3.10;;;26.20;44.80;;;;;;5077207;28;20454;-84
2022/06/06 00:36:11;;;;;;;3.23;3.13;;;26.10;45.00;;;;;;5077165;28;20509;-83
2022/06/06 00:38:39;;;;;;;3.30;3.10;;;26.10;45.10;;;;;;5077464;28;20445;-84
2022/06/06 00:41:07;;;;;;;3.20;3.10;;;26.10;45.20;;;;;;5077406;28;20551;-83
2022/06/06 00:43:36;;;;;;;3.10;3.00;;;26.10;45.30;;;;;;5080877;28;20548;-84
2022/06/06 00:46:04;;;;;;;3.07;2.97;;;26.00;45.40;;;;;;5079347;28;20422;-83
2022/06/06 00:48:36;;;;;;;3.53;3.40;;;26.00;45.70;;;;;;5079209;28;20449;-84
2022/06/06 00:51:05;;;;;;;3.30;3.20;;;26.00;45.80;;;;;;5079340;28;20524;-83
2022/06/06 00:53:35;;;;;;;3.20;3.10;;;26.00;45.90;;;;;;5078542;28;20452;-84
2022/06/06 00:56:08;;;;;;;3.13;3.03;;;26.00;46.00;;;;;;5078705;28;20869;-81
2022/06/06 00:58:37;;;;;;;2.90;2.80;;;26.00;46.10;;;;;;5079978;28;20450;-84
2022/06/06 01:01:05;;;;;;;3.27;3.10;;;26.00;46.40;;;;;;5078015;28;20516;-83
2022/06/06 01:03:34;;;;;;;2.93;2.83;;;25.90;46.30;;;;;;5078672;28;20452;-84
2022/06/06 01:06:03;;;;;;;3.00;2.90;;;25.90;46.50;;;;;;5078488;28;20449;-85
2022/06/06 01:08:32;;;;;;;2.90;2.80;;;25.90;46.60;;;;;;5078610;28;20540;-83
2022/06/06 01:11:00;;;;;;;2.67;2.57;;;25.90;47.00;;;;;;5078900;28;20467;-84
2022/06/06 01:13:28;;;;;;;3.00;2.90;;;25.90;46.70;;;;;;5078742;28;20419;-83
2022/06/06 01:16:21;;;;;;;2.80;2.70;;;25.90;46.80;;;;;;5079173;28;20520;-84
2022/06/06 01:19:13;;;;;;;2.60;2.50;;;26.00;46.90;;;;;;5079014;28;20524;-83
2022/06/06 01:22:12;;;;;;;2.40;2.30;;;25.90;47.20;;;;;;5080754;28;20528;-83
2022/06/06 01:25:04;;;;;;;2.40;2.30;;;25.90;47.20;;;;;;5085456;28;20511;-84
2022/06/06 01:27:44;;;;;;;2.60;2.40;;;25.90;47.40;;;;;;5084306;28;20452;-85
2022/06/06 01:30:15;;;;;;;2.10;2.00;;;25.90;47.60;;;;;;5083126;28;20443;-84
2022/06/06 01:32:44;;;;;;;2.40;2.20;;;25.90;47.70;;;;;;5083270;28;20500;-84
2022/06/06 01:35:13;;;;;;;2.27;2.17;;;25.90;47.80;;;;;;5081408;28;20468;-84
2022/06/06 01:37:42;;;;;;;2.30;2.20;;;25.90;47.90;;;;;;5084781;28;20461;-83
2022/06/06 01:40:11;;;;;;;1.93;1.93;;;25.90;48.10;;;;;;5086253;28;20453;-82
2022/06/06 01:42:43;;;;;;;1.70;1.70;;;25.90;48.20;;;;;;5085909;28;20466;-84
2022/06/06 01:45:20;;;;;;;2.10;2.10;;;25.80;48.20;;;;;;5086468;28;20470;-84
2022/06/06 01:47:50;;;;;;;2.17;2.07;;;25.80;48.20;;;;;;5086384;28;20485;-83
2022/06/06 01:50:18;;;;;;;1.80;1.80;;;25.80;48.40;;;;;;5086574;28;20435;-84
2022/06/06 01:52:51;;;;;;;1.67;1.67;;;25.80;48.40;;;;;;5086777;28;20481;-83
2022/06/06 01:55:19;;;;;;;1.90;1.90;;;25.80;48.50;;;;;;5085636;28;20464;-83
2022/06/06 01:57:48;;;;;;;1.50;1.50;;;25.80;48.50;;;;;;5085043;28;20499;-83
2022/06/06 02:00:18;;;;;;;1.43;1.43;;;25.80;48.60;;;;;;5084773;28;20480;-83
2022/06/06 02:02:46;;;;;;;1.70;1.60;;;25.80;48.70;;;;;;5083945;28;20500;-83
2022/06/06 02:05:14;;;;;;;1.60;1.50;;;25.80;48.60;;;;;;5085204;28;20464;-83
2022/06/06 02:07:42;;;;;;;1.93;1.83;;;25.80;48.50;;;;;;5086407;28;20438;-83
2022/06/06 02:10:11;;;;;;;1.73;1.67;;;25.80;48.60;;;;;;5086364;28;20461;-83
2022/06/06 02:12:39;;;;;;;1.90;1.90;;;25.70;48.60;;;;;;5084465;28;20493;-83
2022/06/06 02:15:08;;;;;;;1.47;1.47;;;25.70;48.60;;;;;;5084682;28;20452;-83
2022/06/06 02:21:19;;;;;;;1.60;1.60;;;25.70;48.40;;;;;;5084651;28;20409;-83
2022/06/06 02:23:48;;;;;;;1.77;1.67;;;25.70;48.70;;;;;;5085018;28;20447;-83
2022/06/06 02:26:16;;;;;;;1.87;1.77;;;25.70;48.60;;;;;;5086286;28;20470;-83
2022/06/06 02:28:44;;;;;;;1.87;1.70;;;25.70;48.60;;;;;;5086137;28;20438;-82
2022/06/06 02:31:20;;;;;;;1.70;1.60;;;25.70;48.60;;;;;;5085653;28;20448;-83
2022/06/06 02:41:18;;;;;;;1.50;1.50;;;25.70;48.50;;;;;;5086020;28;20447;-83
2022/06/06 02:43:46;;;;;;;1.70;1.70;;;25.60;48.70;;;;;;5087017;28;20491;-84
2022/06/06 02:46:15;;;;;;;1.40;1.30;;;25.60;48.60;;;;;;5085990;28;20496;-83
2022/06/06 02:48:43;;;;;;;1.40;1.40;;;25.60;48.40;;;;;;5085635;28;20420;-83
2022/06/06 02:51:11;;;;;;;1.30;1.30;;;25.60;48.50;;;;;;5085043;28;20476;-83
2022/06/06 02:53:39;;;;;;;1.60;1.50;;;25.60;48.50;;;;;;5084824;28;20474;-84
2022/06/06 02:56:08;;;;;;;1.30;1.30;;;25.60;48.50;;;;;;5084373;28;20441;-83
2022/06/06 02:58:37;;;;;;;1.30;1.30;;;25.60;48.60;;;;;;5083870;28;20448;-83
2022/06/06 03:01:06;;;;;;;1.53;1.53;;;25.50;48.50;;;;;;5086349;28;20436;-84
2022/06/06 03:03:35;;;;;;;1.43;1.43;;;25.50;48.50;;;;;;5085962;28;20479;-84
2022/06/06 03:06:15;;;;;;;2.90;1.80;;;25.50;49.20;;;;;;5085671;28;20489;-83
2022/06/06 03:08:55;;;;;;;1.50;1.50;;;25.60;48.60;;;;;;5084983;28;20465;-84
2022/06/06 03:11:30;;;;;;;1.73;1.73;;;25.60;48.50;;;;;;5085149;28;20449;-83
2022/06/06 03:14:30;;;;;;;2.63;1.90;;;25.50;48.40;;;;;;5085710;28;20433;-82
2022/06/06 03:22:48;;;;;;;1.97;1.87;;;25.40;48.60;;;;;;5085488;28;20496;-83
2022/06/06 03:25:20;;;;;;;2.13;2.03;;;25.40;48.80;;;;;;5084989;28;20455;-84
2022/06/06 03:27:52;;;;;;;1.90;1.80;;;25.40;48.60;;;;;;5084865;28;20473;-81
2022/06/06 03:30:27;;;;;;;2.20;2.10;;;25.40;48.80;;;;;;5085797;28;20451;-83
2022/06/06 03:33:05;;;;;;;2.20;2.10;;;25.40;48.80;;;;;;5084435;28;20461;-83
2022/06/06 03:35:39;;;;;;;2.30;2.20;;;25.40;48.70;;;;;;5085371;28;20463;-82
2022/06/06 03:38:08;;;;;;;2.17;2.07;;;25.40;48.80;;;;;;5085907;28;20435;-83
2022/06/06 03:40:41;;;;;;;1.87;1.87;;;25.40;48.70;;;;;;5085117;28;20450;-83
2022/06/06 03:43:14;;;;;;;2.43;2.33;;;25.40;48.80;;;;;;5085318;28;20466;-83
2022/06/06 03:45:44;;;;;;;2.60;2.50;;;25.40;48.90;;;;;;5084391;28;20450;-84
2022/06/06 03:48:22;;;;;;;2.60;2.50;;;25.40;48.90;;;;;;5084156;28;20453;-83
2022/06/06 03:51:02;;;;;;;2.40;2.30;;;25.30;48.90;;;;;;5083588;28;20436;-83
2022/06/06 03:53:37;;;;;;;2.80;2.70;;;25.40;48.80;;;;;;5084501;28;20449;-83
2022/06/06 03:56:14;;;;;;;2.50;2.40;;;25.30;48.80;;;;;;5083249;28;20408;-83
2022/06/06 03:58:42;;;;;;;2.73;2.63;;;25.40;48.80;;;;;;5083187;28;20437;-82
2022/06/06 04:01:14;;;;;;;2.83;2.73;;;25.30;49.60;;;;;;5082541;28;20552;-83
2022/06/06 04:03:42;;;;;;;2.90;2.70;;;25.30;48.90;;;;;;5084514;28;20441;-84
2022/06/06 04:06:11;;;;;;;2.90;2.80;;;25.30;48.80;;;;;;5082040;28;20465;-84
2022/06/06 04:08:39;;;;;;;3.20;3.00;;;25.20;48.90;;;;;;5082562;28;20469;-83
2022/06/06 04:11:13;;;;;;;3.33;3.13;;;25.20;48.90;;;;;;5082409;28;20450;-83
2022/06/06 04:13:44;;;;;;;3.13;2.93;;;25.30;48.90;;;;;;5083682;28;20490;-83
2022/06/06 04:16:21;;;;;;;3.50;3.20;;;25.20;49.10;;;;;;5083107;28;20521;-83
2022/06/06 04:18:56;;;;;;;2.83;2.73;;;25.20;49.20;;;;;;5083381;28;20416;-83
2022/06/06 04:21:30;;;;;;;2.90;2.80;;;25.20;49.10;;;;;;5083563;28;20428;-83
2022/06/06 04:24:20;;;;;;;3.30;3.10;;;25.20;48.90;;;;;;5084068;28;20427;-83
2022/06/06 04:26:52;;;;;;;3.63;3.40;;;25.20;49.10;;;;;;5084591;28;20473;-83
2022/06/06 04:29:24;;;;;;;3.47;3.27;;;25.20;49.10;;;;;;5083459;28;20454;-83
2022/06/06 04:31:56;;;;;;;3.67;3.47;;;25.20;49.00;;;;;;5084264;28;20467;-84
2022/06/06 04:34:27;;;;;;;3.80;3.50;;;25.20;49.00;;;;;;5083853;28;20426;-84
2022/06/06 04:37:03;;;;;;;3.57;3.37;;;25.10;49.00;;;;;;5083262;28;20467;-83
2022/06/06 04:39:36;;;;;;;4.73;3.30;;;25.10;49.10;;;;;;5083606;28;20483;-83
2022/06/06 04:42:05;;;;;;;3.53;3.33;;;25.10;49.00;;;;;;5084330;28;20473;-83
2022/06/06 04:44:35;;;;;;;4.23;3.93;;;25.20;49.00;;;;;;5083692;28;20427;-83
2022/06/06 04:47:08;;;;;;;3.40;3.20;;;25.20;49.00;;;;;;5083550;28;20473;-82
2022/06/06 04:49:36;;;;;;;3.97;3.70;;;25.10;48.90;;;;;;5081980;28;20442;-82
2022/06/06 04:52:05;;;;;;;3.80;3.40;;;25.10;48.90;;;;;;5082381;28;20474;-82
2022/06/06 04:54:33;;;;;;;3.77;3.47;;;25.10;49.00;;;;;;5082339;28;20421;-84
2022/06/06 04:57:02;;;;;;;4.27;3.97;;;25.10;49.10;;;;;;5084723;28;20445;-82
2022/06/06 04:59:30;;;;;;;3.53;3.23;;;25.10;49.00;;;;;;5085954;28;20441;-82
2022/06/06 05:01:59;;;;;;;3.20;3.00;;;25.10;49.10;;;;;;5086128;28;20460;-84
2022/06/06 05:04:29;;;;;;;3.20;3.00;;;25.10;49.00;;;;;;5090735;28;20453;-82
2022/06/06 05:07:09;;;;;;;3.70;3.50;;;25.10;49.10;;;;;;5087407;28;20502;-83
2022/06/06 05:09:50;;;;;;;3.90;3.70;;;25.10;49.00;;;;;;5088694;28;20460;-83
2022/06/06 05:12:32;;;;;;;4.47;4.07;;;25.10;48.90;;;;;;5087183;28;20469;-83
2022/06/06 05:15:21;;;;;;;3.80;3.50;;;25.10;49.00;;;;;;5086802;28;20449;-83
2022/06/06 05:18:00;;;;;;;4.13;3.40;;;25.10;49.00;;;;;;5087670;28;20415;-83
2022/06/06 05:20:41;;;;;;;4.20;3.80;;;25.00;49.10;;;;;;5087154;28;20460;-83
2022/06/06 05:23:28;;;;;;;4.23;3.73;;;25.00;49.10;;;;;;5087541;28;20485;-83
2022/06/06 05:26:09;;;;;;;3.37;3.17;;;25.00;49.00;;;;;;5084563;28;20448;-83
2022/06/06 05:29:00;;;;;;;4.07;3.77;;;25.00;49.00;;;;;;5086378;28;20442;-83
2022/06/06 05:31:37;;;;;;;4.30;3.90;;;25.00;49.00;;;;;;5088121;28;20443;-82
2022/06/06 05:34:08;;;;;;;4.03;3.70;;;25.00;49.00;;;;;;5087770;28;20435;-83
2022/06/06 05:36:50;;;;;;;4.00;3.70;;;25.00;49.10;;;;;;5088320;28;20456;-82
2022/06/06 05:39:25;;;;;;;3.90;3.63;;;25.00;49.00;;;;;;5088527;28;20441;-83
2022/06/06 05:42:04;;;;;;;4.10;3.70;;;25.00;49.10;;;;;;5088124;28;20543;-83
2022/06/06 05:44:35;;;;;;;3.67;3.37;;;25.00;48.90;;;;;;5088220;28;20448;-83
2022/06/06 05:47:07;;;;;;;4.20;3.90;;;25.00;49.10;;;;;;5087642;28;20493;-82
2022/06/06 05:49:51;;;;;;;3.73;3.50;;;25.00;49.00;;;;;;5087957;28;20453;-82
2022/06/06 05:52:32;;;;;;;4.40;4.10;;;25.00;49.00;;;;;;5087867;28;20440;-82
2022/06/06 05:55:09;;;;;;;4.63;4.27;;;24.90;49.10;;;;;;5088515;28;20427;-82
2022/06/06 05:57:57;;;;;;;4.40;4.00;;;24.90;49.10;;;;;;5088147;28;20415;-83
2022/06/06 06:00:27;;;;;;;5.67;4.40;;;24.90;49.10;;;;;;5087442;28;20475;-82
2022/06/06 06:03:24;;;;;;;4.13;3.80;;;24.90;49.10;;;;;;5088177;28;20445;-82
2022/06/06 06:05:59;;;;;;;4.93;4.53;;;24.90;49.10;;;;;;5088121;28;20445;-81
2022/06/06 06:08:56;;;;;;;4.53;4.13;;;24.90;49.10;;;;;;5087175;28;20437;-82
2022/06/06 06:11:32;;;;;;;5.00;4.60;;;24.90;49.00;;;;;;5087764;28;20439;-83
2022/06/06 06:14:08;;;;;;;5.20;4.70;;;24.80;49.10;;;;;;5087997;28;20452;-82
2022/06/06 06:16:39;;;;;;;4.83;4.43;;;24.90;49.20;;;;;;5087910;28;20465;-83
2022/06/06 06:19:08;;;;;;;7.00;4.43;;;24.90;49.30;;;;;;5088195;28;20410;-83
2022/06/06 06:21:39;;;;;;;5.13;4.67;;;24.80;49.10;;;;;;5087849;28;20449;-84
2022/06/06 06:24:09;;;;;;;5.73;4.50;;;24.80;49.00;;;;;;5087951;28;20427;-83
2022/06/06 06:26:38;;;;;;;5.40;4.70;;;24.80;49.00;;;;;;5088065;28;20466;-83
2022/06/06 06:29:07;;;;;;;5.40;4.70;;;24.80;49.10;;;;;;5087851;28;20869;-83
2022/06/06 06:31:54;;;;;;;6.97;4.90;;;24.80;49.00;;;;;;5087697;28;20458;-84
2022/06/06 06:34:31;;;;;;;5.50;4.97;;;24.80;48.90;;;;;;5088747;28;20424;-84
2022/06/06 06:37:05;;;;;;;7.43;4.20;;;24.80;49.00;;;;;;5089286;28;20416;-83
2022/06/06 06:39:42;;;;;;;5.53;4.97;;;24.80;49.00;;;;;;5088694;28;20427;-83
2022/06/06 06:42:19;;;;;;;7.73;5.00;;;24.80;48.90;;;;;;5088224;28;20461;-82
2022/06/06 06:44:49;;;;;;;5.50;5.00;;;24.80;48.80;;;;;;5086378;28;20441;-83
2022/06/06 06:47:19;;;;;;;6.00;5.40;;;24.80;48.80;;;;;;5086793;28;20504;-83
2022/06/06 06:49:51;;;;;;;6.17;4.70;;;24.80;48.70;;;;;;5088508;28;20499;-83
2022/06/06 06:52:30;;;;;;;5.13;4.73;;;24.80;48.80;;;;;;5088995;28;20476;-83
2022/06/06 06:55:07;;;;;;;6.53;5.00;;;24.80;48.70;;;;;;5088432;28;20483;-82
2022/06/06 06:57:54;;;;;;;4.70;4.30;;;24.80;48.70;;;;;;5089781;28;20436;-83
2022/06/06 07:00:24;;;;;;;5.50;5.00;;;24.80;48.70;;;;;;5089694;28;20445;-81
2022/06/06 07:08:51;;;;;;;4.87;4.40;;;24.80;48.60;;;;;;5087989;28;20470;-82
2022/06/06 07:11:39;;;;;;;5.20;4.70;;;24.80;48.50;;;;;;5087116;28;20438;-83
2022/06/06 07:14:13;;;;;;;4.90;4.50;;;24.80;48.60;;;;;;5087267;28;20457;-83
2022/06/06 07:16:41;;;;;;;4.80;4.30;;;24.80;48.50;;;;;;5086798;28;20426;-82
2022/06/06 07:19:12;;;;;;;4.70;4.30;;;24.80;48.50;;;;;;5087486;28;20404;-83
2022/06/06 07:21:41;;;;;;;4.97;4.60;;;24.80;48.40;;;;;;5087160;28;20454;-84
2022/06/06 07:24:10;;;;;;;5.00;4.20;;;24.90;48.60;;;;;;5087108;28;20449;-84
2022/06/06 07:26:42;;;;;;;4.60;4.20;;;24.90;48.60;;;;;;5088334;28;21006;-81
2022/06/06 07:29:11;;;;;;;4.80;4.40;;;25.00;48.50;;;;;;5086205;28;20474;-83
2022/06/06 07:31:54;;;;;;;4.70;4.30;;;25.00;48.30;;;;;;5084427;28;20489;-82
2022/06/06 07:34:37;;;;;;;4.97;4.47;;;25.00;48.70;;;;;;5076845;28;20464;-82
2022/06/06 07:37:15;;;;;;;5.07;4.67;;;25.10;48.20;;;;;;5073333;28;20450;-83
2022/06/06 07:39:49;;;;;;;5.23;4.73;;;25.10;48.10;;;;;;5079181;28;20441;-83
2022/06/06 07:42:27;;;;;;;4.63;4.33;;;25.10;48.00;;;;;;5080385;28;20492;-83
2022/06/06 07:45:13;;;;;;;5.50;4.97;;;25.20;48.00;;;;;;5078067;28;20422;-84
2022/06/06 07:47:51;;;;;;;4.90;4.50;;;25.20;48.00;;;;;;5074498;28;20501;-82
2022/06/06 07:50:21;;;;;;;4.83;4.43;;;25.20;48.00;;;;;;5081196;28;20438;-85
2022/06/06 07:52:52;;;;;;;4.80;4.27;;;25.20;47.80;;;;;;5084609;28;20458;-83
2022/06/06 07:55:22;;;;;;;4.30;4.00;;;25.20;47.90;;;;;;5081609;28;20469;-81
2022/06/06 07:58:00;;;;;;;5.00;4.70;;;25.20;47.90;;;;;;5078347;28;20500;-82
2022/06/06 08:00:28;;;;;;;4.87;4.47;;;25.30;47.70;;;;;;5075890;28;20532;-81
2022/06/06 08:02:59;;;;;;;4.80;4.40;;;25.30;47.70;;;;;;5074441;28;20484;-82
2022/06/06 08:05:54;;;;;;;4.33;4.03;;;25.30;47.60;;;;;;5074230;28;20484;-82
2022/06/06 08:08:26;;;;;;;6.60;5.33;;;25.30;47.60;;;;;;5075365;28;20469;-82
2022/06/06 08:10:54;;;;;;;4.57;4.17;;;25.30;47.50;;;;;;5074316;28;20474;-82
2022/06/06 08:13:31;;;;;;;4.80;4.40;;;25.30;47.50;;;;;;5075594;28;20464;-82
2022/06/06 08:16:13;;;;;;;4.97;4.57;;;25.30;47.40;;;;;;5077746;28;20420;-82
2022/06/06 08:18:53;;;;;;;5.10;4.60;;;25.30;47.50;;;;;;5078252;28;20867;-82
2022/06/06 08:21:24;;;;;;;4.20;3.90;;;25.40;47.50;;;;;;5078846;28;20488;-82
2022/06/06 08:23:53;;;;;;;4.83;4.43;;;25.40;47.60;;;;;;5078060;28;20464;-81
2022/06/06 08:26:23;;;;;;;4.73;4.33;;;25.40;47.40;;;;;;5084768;28;20447;-82
2022/06/06 08:28:52;;;;;;;5.13;4.60;;;25.40;47.40;;;;;;5086386;28;20466;-83
2022/06/06 08:31:21;;;;;;;5.17;4.63;;;25.40;47.40;;;;;;5083643;28;20448;-83
2022/06/06 08:33:49;;;;;;;4.30;4.00;;;25.40;47.30;;;;;;5083902;28;20442;-83
2022/06/06 08:36:26;;;;;;;3.73;3.53;;;25.40;47.40;;;;;;5084140;28;20416;-83
2022/06/06 08:38:58;;;;;;;4.17;3.87;;;25.40;47.30;;;;;;5086212;28;20412;-84
2022/06/06 08:41:47;;;;;;;4.30;4.00;;;25.40;47.20;;;;;;5085122;28;20461;-83
2022/06/06 08:44:26;;;;;;;4.53;4.13;;;25.40;47.20;;;;;;5084647;28;20465;-83
2022/06/06 08:47:08;;;;;;;5.03;4.53;;;25.50;47.40;;;;;;5085667;28;20461;-83
2022/06/06 08:53:43;;;;;;;5.03;4.60;;;25.50;47.30;;;;;;5084019;28;20481;-83
2022/06/06 08:56:29;;;;;;;6.07;5.20;;;25.50;47.50;;;;;;5047934;28;20411;-83
2022/06/06 08:59:12;;;;;;;5.87;4.50;;;25.60;47.40;;;;;;5084303;28;20459;-81
2022/06/06 09:02:06;;;;;;;5.50;5.00;;;25.70;47.40;;;;;;5081213;28;20432;-83
2022/06/06 09:04:59;;;;;;;7.00;5.33;;;26.00;47.30;;;;;;5077032;28;20437;-82
2022/06/06 09:07:53;;;;;;;6.37;5.77;;;26.20;47.20;;;;;;5076159;28;20445;-81
2022/06/06 09:10:53;;;;;;;4.90;4.60;;;26.40;46.90;;;;;;5076807;28;21003;-81
2022/06/06 09:13:51;;;;;;;6.13;5.40;;;26.60;46.80;;;;;;5076151;28;20468;-82
2022/06/06 09:16:50;;;;;;;6.10;5.50;;;26.80;46.60;;;;;;5075578;28;20517;-83
2022/06/06 09:19:52;;;;;;;5.47;4.97;;;26.90;46.30;;;;;;5078397;28;20416;-81
2022/06/06 09:22:36;;;;;;;6.13;5.20;;;26.90;46.10;;;;;;5076921;28;20459;-82
2022/06/06 09:25:26;;;;;;;5.77;5.27;;;26.90;46.20;;;;;;5075030;28;20536;-82
2022/06/06 09:28:26;;;;;;;5.60;5.10;;;26.90;46.20;;;;;;5074872;28;20505;-81
2022/06/06 09:31:42;;;;;;;5.87;5.30;;;27.00;46.40;;;;;;5078951;28;20435;-83
2022/06/06 09:34:52;;;;;;;5.93;5.33;;;27.20;46.10;;;;;;5084419;28;20446;-83
2022/06/06 09:38:22;;;;;;;5.37;4.87;;;27.40;45.70;;;;;;5091815;28;20936;-84
2022/06/06 09:41:20;;;;;;;4.80;4.40;;;27.50;45.20;;;;;;5050633;28;20452;-82
2022/06/06 09:43:57;;;;;;;5.27;4.87;;;27.70;45.00;;;;;;5086515;28;20393;-82
2022/06/06 09:46:51;;;;;;;5.00;4.60;;;27.90;44.80;;;;;;5091200;28;20460;-83
2022/06/06 09:49:56;;;;;;;4.50;4.10;;;28.00;44.40;;;;;;5085647;28;20503;-82
2022/06/06 09:52:55;;;;;;;4.47;4.17;;;28.20;44.20;;;;;;5085486;28;20460;-82
2022/06/06 09:59:08;;;;;;;8.17;4.73;;;28.50;43.60;;;;;;5087697;28;20433;-80
2022/06/06 10:02:07;;;;;;;4.20;3.90;;;28.70;43.40;;;;;;5085080;28;20458;-82
2022/06/06 10:05:05;;;;;;;4.77;4.30;;;28.70;43.00;;;;;;5082354;28;20437;-83
2022/06/06 10:08:17;;;;;;;4.40;4.20;;;28.80;42.60;;;;;;5083702;28;20541;-83
2022/06/06 10:11:38;;;;;;;4.43;4.10;;;28.80;42.50;;;;;;5089109;28;20437;-85
2022/06/06 10:14:19;;;;;;;4.20;3.70;;;28.90;42.30;;;;;;5084660;28;20449;-82
2022/06/06 10:16:56;;;;;;;3.80;3.60;;;29.00;42.30;;;;;;5079012;28;20469;-82
2022/06/06 10:19:59;;;;;;;3.90;3.70;;;29.20;42.00;;;;;;5081503;28;20468;-83
2022/06/06 10:22:56;;;;;;;3.53;3.40;;;29.40;41.80;;;;;;5045882;28;20458;-82
2022/06/06 10:25:56;;;;;;;3.60;3.40;;;29.50;41.40;;;;;;5084435;28;20473;-84
2022/06/06 10:28:40;;;;;;;3.40;3.20;;;29.60;41.10;;;;;;5081286;28;20452;-84
2022/06/06 10:31:14;;;;;;;8.67;3.23;;;29.70;41.00;;;;;;5079822;28;20540;-83
2022/06/06 10:34:12;;;;;;;3.60;3.40;;;29.80;40.70;;;;;;5078849;28;20421;-82
2022/06/06 10:36:51;;;;;;;3.90;3.60;;;29.70;40.70;;;;;;5075737;28;20461;-83
2022/06/06 10:39:47;;;;;;;3.23;3.13;;;29.70;41.00;;;;;;5081379;28;20445;-84
2022/06/06 10:42:43;;;;;;;3.47;3.27;;;29.70;41.10;;;;;;5084693;28;20461;-83
2022/06/06 10:45:21;;;;;;;3.30;3.00;;;29.70;40.90;;;;;;5081576;28;20464;-82
2022/06/06 10:48:40;;;;;;;3.33;3.13;;;29.50;41.00;;;;;;5083831;28;20490;-83
2022/06/06 10:51:43;;;;;;;2.80;2.70;;;29.40;41.30;;;;;;5056976;28;20485;-83
2022/06/06 10:54:53;;;;;;;3.23;2.93;;;29.40;41.10;;;;;;5045716;28;20448;-83
2022/06/06 10:57:55;;;;;;;3.00;2.90;;;29.50;41.30;;;;;;5079614;28;20687;-82
2022/06/06 11:00:28;;;;;;;3.37;3.17;;;29.60;40.80;;;;;;5080210;28;20512;-83
2022/06/06 11:03:32;;;;;;;3.30;3.10;;;29.70;41.00;;;;;;5079971;28;20462;-82
2022/06/06 11:06:29;;;;;;;3.30;3.00;;;29.80;40.90;;;;;;5079646;28;20456;-82
2022/06/06 11:09:23;;;;;;;3.13;2.93;;;30.00;40.60;;;;;;5054312;28;20466;-83
2022/06/06 11:12:21;;;;;;;3.00;2.77;;;30.10;40.40;;;;;;5082071;28;20778;-84
2022/06/06 11:14:51;;;;;;;2.90;2.70;;;30.20;39.80;;;;;;5079448;28;20449;-82
2022/06/06 11:17:51;;;;;;;2.30;2.20;;;30.20;39.80;;;;;;5082145;28;20434;-83
2022/06/06 11:20:50;;;;;;;3.80;2.53;;;30.20;39.50;;;;;;5074338;28;20430;-83
2022/06/06 11:23:47;;;;;;;2.70;2.60;;;30.20;39.50;;;;;;5079523;28;20461;-82
2022/06/06 11:26:58;;;;;;;3.23;2.37;;;30.20;39.60;;;;;;5080507;28;20433;-82
2022/06/06 11:30:02;;;;;;;2.43;2.33;;;30.40;39.20;;;;;;5078463;28;20529;-82
2022/06/06 11:33:01;;;;;;;2.70;2.50;;;30.50;38.90;;;;;;5080004;28;20496;-81
2022/06/06 11:35:31;;;;;;;2.03;1.93;;;30.70;38.10;;;;;;5082491;28;20536;-84
2022/06/06 11:38:29;;;;;;;2.30;2.10;;;30.80;37.90;;;;;;5082567;28;20453;-83
2022/06/06 11:41:14;;;;;;;3.60;2.40;;;31.00;37.60;;;;;;5080390;28;20485;-82
2022/06/06 11:44:11;;;;;;;2.23;2.13;;;31.10;37.30;;;;;;5079195;28;20464;-84
2022/06/06 11:47:02;;;;;;;2.00;1.90;;;31.10;36.80;;;;;;5077763;28;20445;-82
2022/06/06 11:49:54;;;;;;;2.77;1.83;;;31.20;36.40;;;;;;5080566;28;20549;-83
2022/06/06 11:53:15;;;;;;;3.27;1.90;;;31.30;36.20;;;;;;5088774;28;20477;-83
2022/06/06 11:55:53;;;;;;;1.97;1.87;;;31.40;36.50;;;;;;5048138;28;20472;-83
2022/06/06 11:58:46;;;;;;;2.13;2.03;;;31.50;36.40;;;;;;5084542;28;20441;-83
2022/06/06 12:01:29;;;;;;;1.90;1.80;;;31.50;36.20;;;;;;5085141;28;20465;-82
2022/06/06 12:04:12;;;;;;;2.07;1.97;;;31.60;36.00;;;;;;5083535;28;20430;-83
2022/06/06 12:07:13;;;;;;;1.57;1.57;;;31.50;35.60;;;;;;5084576;28;20520;-83
2022/06/06 12:09:51;;;;;;;1.90;1.80;;;31.60;35.60;;;;;;5085618;28;20481;-84
2022/06/06 12:12:44;;;;;;;2.20;2.00;;;31.60;35.30;;;;;;5081954;28;20518;-85
2022/06/06 12:15:36;;;;;;;2.03;1.90;;;31.80;35.20;;;;;;5083485;28;20449;-84
2022/06/06 12:18:28;;;;;;;1.40;1.40;;;31.70;34.90;;;;;;5083501;28;20494;-83
2022/06/06 12:21:24;;;;;;;2.23;1.83;;;31.70;34.50;;;;;;5083945;28;20496;-83
2022/06/06 12:24:19;;;;;;;1.70;1.60;;;31.60;34.60;;;;;;5089895;28;20517;-84
2022/06/06 12:27:04;;;;;;;5.23;1.60;;;31.50;34.80;;;;;;5077157;28;20465;-84
2022/06/06 12:30:15;;;;;;;2.00;1.83;;;31.30;34.70;;;;;;5086333;28;20531;-84
2022/06/06 12:32:47;;;;;;;1.93;1.83;;;31.40;35.00;;;;;;5079421;28;20449;-84
2022/06/06 12:35:18;;;;;;;1.70;1.60;;;31.40;34.60;;;;;;5085624;28;20497;-85
2022/06/06 12:37:52;;;;;;;2.00;1.90;;;31.40;34.50;;;;;;5086013;28;20449;-84
2022/06/06 12:40:24;;;;;;;1.70;1.60;;;31.50;34.80;;;;;;5084804;28;20429;-85
2022/06/06 12:42:58;;;;;;;2.03;1.93;;;31.60;34.70;;;;;;5085787;28;20468;-85
2022/06/06 12:45:41;;;;;;;1.70;1.60;;;31.50;34.80;;;;;;5085296;28;20465;-84
2022/06/06 12:48:43;;;;;;;2.00;1.90;;;31.60;34.80;;;;;;5085674;28;20450;-85
2022/06/06 12:51:22;;;;;;;1.80;1.70;;;31.50;34.80;;;;;;5086213;28;20476;-85
2022/06/06 12:57:36;;;;;;;1.80;1.77;;;31.70;34.70;;;;;;5086725;28;20476;-84
2022/06/06 13:00:08;;;;;;;1.70;1.60;;;31.60;34.20;;;;;;5086435;28;20438;-84
2022/06/06 13:02:46;;;;;;;1.43;1.43;;;31.50;34.30;;;;;;5086235;28;20544;-85
2022/06/06 13:05:33;;;;;;;1.90;1.80;;;31.50;34.50;;;;;;5086285;28;20442;-84
2022/06/06 13:08:33;;;;;;;1.90;1.80;;;31.40;34.60;;;;;;5087412;28;20442;-83
2022/06/06 13:11:36;;;;;;;2.03;1.50;;;31.40;34.80;;;;;;5086501;28;20477;-84
2022/06/06 13:14:24;;;;;;;1.60;1.60;;;31.40;34.80;;;;;;5074801;28;20457;-84
2022/06/06 13:17:02;;;;;;;1.83;1.73;;;31.40;35.20;;;;;;5086129;28;20468;-84
2022/06/06 13:19:38;;;;;;;1.63;1.53;;;31.30;34.50;;;;;;5089538;28;20936;-84
2022/06/06 13:22:14;;;;;;;1.53;1.53;;;31.20;34.70;;;;;;5090510;28;20491;-85
2022/06/06 13:25:05;;;;;;;1.53;1.43;;;31.30;34.80;;;;;;5090498;28;20475;-84
2022/06/06 13:27:34;;;;;;;1.47;1.47;;;31.40;34.30;;;;;;5089861;28;20494;-81
2022/06/06 13:30:18;;;;;;;1.80;1.70;;;31.40;34.30;;;;;;5089646;28;20476;-84
2022/06/06 13:33:18;;;;;;;1.80;1.70;;;31.50;34.10;;;;;;5089197;28;20433;-84
2022/06/06 13:35:54;;;;;;;1.43;1.33;;;31.50;33.90;;;;;;5089553;28;20452;-84
2022/06/06 13:38:44;;;;;;;1.57;1.50;;;31.60;33.60;;;;;;5089783;28;20437;-83
2022/06/06 13:41:19;;;;;;;1.73;1.63;;;31.60;33.70;;;;;;5089717;28;20472;-83
2022/06/06 13:44:03;;;;;;;1.53;1.53;;;31.60;33.50;;;;;;5090004;28;20444;-84
2022/06/06 13:46:39;;;;;;;1.30;1.30;;;31.60;33.20;;;;;;5087922;28;20437;-85
2022/06/06 13:49:20;;;;;;;1.83;1.73;;;31.60;33.20;;;;;;5088854;28;20471;-84
2022/06/06 13:51:57;;;;;;;1.43;1.37;;;31.60;33.30;;;;;;5088616;28;20480;-84
2022/06/06 13:54:30;;;;;;;1.47;1.47;;;31.60;33.10;;;;;;5088601;28;20434;-84
2022/06/06 13:57:20;;;;;;;1.67;1.57;;;31.60;32.90;;;;;;5088530;28;20430;-85
2022/06/06 14:00:11;;;;;;;2.90;1.30;;;31.60;32.90;;;;;;5087657;28;20446;-84
2022/06/06 14:02:49;;;;;;;1.43;1.37;;;31.60;32.90;;;;;;5088151;28;20473;-84
2022/06/06 14:05:39;;;;;;;1.93;1.20;;;31.50;33.00;;;;;;5087800;28;20444;-83
2022/06/06 14:08:11;;;;;;;1.27;1.27;;;31.50;33.10;;;;;;5087279;28;20449;-84
2022/06/06 14:10:48;;;;;;;1.37;1.27;;;31.50;33.20;;;;;;5087376;28;20469;-82
2022/06/06 14:13:19;;;;;;;1.20;1.20;;;31.50;33.10;;;;;;5087325;28;20951;-84
2022/06/06 14:15:48;;;;;;;1.50;1.40;;;31.40;33.30;;;;;;5086928;28;20469;-84
2022/06/06 14:18:20;;;;;;;1.20;1.20;;;31.40;33.60;;;;;;5088432;28;20442;-84
2022/06/06 14:20:54;;;;;;;1.50;1.40;;;31.30;33.20;;;;;;5087172;28;20449;-84
2022/06/06 14:23:31;;;;;;;1.40;1.40;;;31.40;33.40;;;;;;5087154;28;20426;-82
2022/06/06 14:26:01;;;;;;;1.13;1.13;;;31.30;33.30;;;;;;5086030;28;20492;-83
2022/06/06 14:28:34;;;;;;;1.33;1.23;;;31.20;33.30;;;;;;5084016;28;20458;-84